createdAt,value
2022-10-01T00:07:37.865Z,43.90
2022-10-01T00:18:48.575Z,36.50
2022-10-01T00:29:46.126Z,47.90
2022-10-01T00:40:45.867Z,43.20
2022-10-01T00:51:18.192Z,39.40
2022-10-01T01:02:14.803Z,43.60
2022-10-01T01:13:05.328Z,40.10
2022-10-01T01:23:43.467Z,42.90
2022-10-01T01:34:01.328Z,44.80
2022-10-01T01:44:27.850Z,39.70
2022-10-01T01:54:45.203Z,44.10
2022-10-01T02:05:03.667Z,43.40
2022-10-01T02:15:36.280Z,41.50
2022-10-01T02:26:32.313Z,46.80
2022-10-01T02:36:42.635Z,50.60
2022-10-01T02:47:21.077Z,54.20
2022-10-01T02:57:42.209Z,52.80
2022-10-01T03:08:07.549Z,53.90
2022-10-01T03:18:39.490Z,54.20
2022-10-01T03:28:57.588Z,53.20
2022-10-01T03:39:50.107Z,50.70
2022-10-01T03:50:48.580Z,46.80
2022-10-01T04:01:20.259Z,51.00
2022-10-01T04:12:12.116Z,46.60
2022-10-01T04:22:51.382Z,45.10
2022-10-01T04:33:43.042Z,52.30
2022-10-01T04:44:12.953Z,50.00
2022-10-01T04:54:43.294Z,61.40
2022-10-01T05:05:06.517Z,48.50
2022-10-01T05:15:31.936Z,43.00
2022-10-01T05:26:29.852Z,42.80
2022-10-01T05:37:03.170Z,46.40
2022-10-01T05:47:23.681Z,51.10
2022-10-01T05:57:39.966Z,49.70
2022-10-01T06:08:46.609Z,46.70
2022-10-01T06:19:07.986Z,42.10
2022-10-01T06:29:35.577Z,43.50
2022-10-01T06:40:08.246Z,43.70
2022-10-01T06:50:44.137Z,46.80
2022-10-01T07:01:03.517Z,48.50
2022-10-01T07:11:57.921Z,47.90
2022-10-01T07:22:24.960Z,41.30
2022-10-01T07:33:16.973Z,37.20
2022-10-01T07:43:53.920Z,37.70
2022-10-01T07:54:32.458Z,32.30
2022-10-01T08:05:40.374Z,31.10
2022-10-01T08:16:18.719Z,29.10
2022-10-01T08:26:30.845Z,29.70
2022-10-01T08:36:35.851Z,31.70
2022-10-01T08:46:55.918Z,33.30
2022-10-01T08:57:25.168Z,29.50
2022-10-01T09:07:41.725Z,26.30
2022-10-01T09:18:27.129Z,25.00
2022-10-01T09:28:35.182Z,22.00
2022-10-01T09:38:42.997Z,30.00
2022-10-01T09:49:50.742Z,23.70
2022-10-01T10:00:18.612Z,22.70
2022-10-01T10:10:39.748Z,19.80
2022-10-01T10:20:52.924Z,20.70
2022-10-01T10:31:27.032Z,20.30
2022-10-01T10:41:38.156Z,19.90
2022-10-01T10:52:05.018Z,18.00
2022-10-01T11:02:21.520Z,23.00
2022-10-01T11:13:06.800Z,16.00
2022-10-01T11:23:36.835Z,16.00
2022-10-01T11:34:13.884Z,17.50
2022-10-01T11:45:00.836Z,10.80
2022-10-01T11:55:53.297Z,8.00
2022-10-01T12:06:25.098Z,8.40
2022-10-01T12:16:57.886Z,8.20
2022-10-01T12:27:44.588Z,8.20
2022-10-01T12:38:35.356Z,8.90
2022-10-01T12:49:25.181Z,6.90
2022-10-01T13:00:08.042Z,7.50
2022-10-01T13:11:00.566Z,49.40
2022-10-01T13:21:38.543Z,7.90
2022-10-01T13:32:03.872Z,10.10
2022-10-01T13:42:18.530Z,9.00
2022-10-01T13:52:25.442Z,14.00
2022-10-01T14:03:01.171Z,11.10
2022-10-01T14:13:37.128Z,12.00
2022-10-01T14:24:40.262Z,13.10
2022-10-01T14:35:02.675Z,12.50
2022-10-01T14:45:25.138Z,15.00
2022-10-01T14:55:30.059Z,16.70
2022-10-01T15:05:37.457Z,17.50
2022-10-01T15:16:23.953Z,17.40
2022-10-01T15:27:00.691Z,18.00
2022-10-01T15:37:11.564Z,21.90
2022-10-01T15:47:45.534Z,20.10
2022-10-01T15:58:07.843Z,21.30
2022-10-01T16:08:24.427Z,22.00
2022-10-01T16:29:27.095Z,21.70
2022-10-01T16:40:30.050Z,22.50
2022-10-01T16:51:22.610Z,21.50
2022-10-01T17:01:29.630Z,26.20
2022-10-01T17:11:38.862Z,25.80
2022-10-01T17:22:11.746Z,24.90
2022-10-01T17:32:20.382Z,28.80
2022-10-01T17:42:51.591Z,30.60
2022-10-01T17:52:59.077Z,27.70
2022-10-01T18:03:08.150Z,39.20
2022-10-01T18:13:22.351Z,35.50
2022-10-01T18:23:38.770Z,27.50
2022-10-01T18:34:11.531Z,31.40
2022-10-01T18:44:28.665Z,28.60
2022-10-01T18:55:06.701Z,33.80
2022-10-01T19:05:59.500Z,36.50
2022-10-01T19:16:38.117Z,35.90
2022-10-01T19:27:01.327Z,40.10
2022-10-01T19:38:02.673Z,38.70
2022-10-01T19:48:51.506Z,43.20
2022-10-01T19:59:23.182Z,49.00
2022-10-01T20:10:05.539Z,47.50
2022-10-01T20:20:42.833Z,46.20
2022-10-01T20:31:10.426Z,45.90
2022-10-01T20:41:48.629Z,49.80
2022-10-01T20:53:04.013Z,56.40
2022-10-01T21:04:16.505Z,56.70
2022-10-01T21:14:28.186Z,40.20
2022-10-01T21:25:26.007Z,32.90
2022-10-01T21:36:10.036Z,23.00
2022-10-01T21:46:31.914Z,24.90
2022-10-01T21:56:55.121Z,14.00
2022-10-01T22:07:49.968Z,14.00
2022-10-01T22:18:18.623Z,10.50
2022-10-01T22:28:53.978Z,12.20
2022-10-01T22:39:54.179Z,12.60
2022-10-01T22:50:53.734Z,11.50
2022-10-01T23:01:38.038Z,11.20
2022-10-01T23:12:57.802Z,9.30
2022-10-01T23:24:18.758Z,9.80
2022-10-01T23:34:52.485Z,10.90
2022-10-01T23:45:37.097Z,10.40
2022-10-01T23:56:34.912Z,11.20
